sensor_id;sensor_type;location;lat;lon;timestamp;pressure;altitude;pressure_sealevel;temperature
27986;BMP280;15453;53.692;10.168;2022-08-18T00:01:20;100811.28;;;24.89
27986;BMP280;15453;53.692;10.168;2022-08-18T00:03:46;100816.09;;;24.88
27986;BMP280;15453;53.692;10.168;2022-08-18T00:06:12;100808.03;;;24.87
27986;BMP280;15453;53.692;10.168;2022-08-18T00:08:37;100801.94;;;24.85
27986;BMP280;15453;53.692;10.168;2022-08-18T00:11:04;100809.53;;;24.84
27986;BMP280;15453;53.692;10.168;2022-08-18T00:13:29;100810.69;;;24.83
27986;BMP280;15453;53.692;10.168;2022-08-18T00:15:54;100810.69;;;24.83
27986;BMP280;15453;53.692;10.168;2022-08-18T00:18:19;100809.03;;;24.82
27986;BMP280;15453;53.692;10.168;2022-08-18T00:20:45;100809.03;;;24.82
27986;BMP280;15453;53.692;10.168;2022-08-18T00:23:10;100818.28;;;24.83
27986;BMP280;15453;53.692;10.168;2022-08-18T00:25:35;100827.84;;;24.82
27986;BMP280;15453;53.692;10.168;2022-08-18T00:28:02;100820.56;;;24.81
27986;BMP280;15453;53.692;10.168;2022-08-18T00:30:27;100815.81;;;24.81
27986;BMP280;15453;53.692;10.168;2022-08-18T00:32:54;100815.81;;;24.81
27986;BMP280;15453;53.692;10.168;2022-08-18T00:35:23;100821.06;;;24.83
27986;BMP280;15453;53.692;10.168;2022-08-18T00:37:54;100821.06;;;24.83
27986;BMP280;15453;53.692;10.168;2022-08-18T00:40:24;100805.28;;;24.78
27986;BMP280;15453;53.692;10.168;2022-08-18T00:42:52;100806.94;;;24.79
27986;BMP280;15453;53.692;10.168;2022-08-18T00:45:26;100802.47;;;24.78
27986;BMP280;15453;53.692;10.168;2022-08-18T00:47:53;100807.41;;;24.81
27986;BMP280;15453;53.692;10.168;2022-08-18T00:50:25;100798.03;;;24.77
27986;BMP280;15453;53.692;10.168;2022-08-18T00:52:57;100798.03;;;24.77
27986;BMP280;15453;53.692;10.168;2022-08-18T00:55:24;100788.69;;;24.73
27986;BMP280;15453;53.692;10.168;2022-08-18T00:57:54;100795.47;;;24.72
27986;BMP280;15453;53.692;10.168;2022-08-18T01:00:25;100798.59;;;24.71
27986;BMP280;15453;53.692;10.168;2022-08-18T01:02:55;100798.59;;;24.71
27986;BMP280;15453;53.692;10.168;2022-08-18T01:05:27;100801.94;;;24.64
27986;BMP280;15453;53.692;10.168;2022-08-18T01:07:54;100797.84;;;24.62
27986;BMP280;15453;53.692;10.168;2022-08-18T01:10:21;100797.84;;;24.62
27986;BMP280;15453;53.692;10.168;2022-08-18T01:12:57;100791.59;;;24.56
27986;BMP280;15453;53.692;10.168;2022-08-18T01:15:24;100791.59;;;24.56
27986;BMP280;15453;53.692;10.168;2022-08-18T01:17:50;100789.97;;;24.55
27986;BMP280;15453;53.692;10.168;2022-08-18T01:21:13;100789.97;;;24.55
27986;BMP280;15453;53.692;10.168;2022-08-18T01:23:58;100794.09;;;24.49
27986;BMP280;15453;53.692;10.168;2022-08-18T01:26:27;100788.50;;;24.49
27986;BMP280;15453;53.692;10.168;2022-08-18T01:28:54;100786.03;;;24.48
27986;BMP280;15453;53.692;10.168;2022-08-18T01:31:32;100788.72;;;24.44
27986;BMP280;15453;53.692;10.168;2022-08-18T01:33:59;100786.25;;;24.43
27986;BMP280;15453;53.692;10.168;2022-08-18T01:36:25;100786.25;;;24.43
27986;BMP280;15453;53.692;10.168;2022-08-18T01:38:52;100787.75;;;24.40
27986;BMP280;15453;53.692;10.168;2022-08-18T01:41:19;100778.56;;;24.40
27986;BMP280;15453;53.692;10.168;2022-08-18T01:43:45;100776.22;;;24.42
27986;BMP280;15453;53.692;10.168;2022-08-18T01:46:11;100773.75;;;24.40
27986;BMP280;15453;53.692;10.168;2022-08-18T01:48:37;100776.09;;;24.38
27986;BMP280;15453;53.692;10.168;2022-08-18T01:51:07;100780.84;;;24.38
27986;BMP280;15453;53.692;10.168;2022-08-18T01:53:33;100780.84;;;24.38
27986;BMP280;15453;53.692;10.168;2022-08-18T01:55:58;100783.88;;;24.33
27986;BMP280;15453;53.692;10.168;2022-08-18T01:58:24;100788.97;;;24.31
27986;BMP280;15453;53.692;10.168;2022-08-18T02:00:53;100785.69;;;24.29
27986;BMP280;15453;53.692;10.168;2022-08-18T02:03:22;100785.69;;;24.29
27986;BMP280;15453;53.692;10.168;2022-08-18T02:05:55;100771.91;;;24.24
27986;BMP280;15453;53.692;10.168;2022-08-18T02:08:23;100771.91;;;24.24
27986;BMP280;15453;53.692;10.168;2022-08-18T02:10:48;100773.75;;;24.20
27986;BMP280;15453;53.692;10.168;2022-08-18T02:13:13;100770.44;;;24.18
27986;BMP280;15453;53.692;10.168;2022-08-18T02:15:39;100769.03;;;24.12
27986;BMP280;15453;53.692;10.168;2022-08-18T02:18:04;100766.88;;;24.09
27986;BMP280;15453;53.692;10.168;2022-08-18T02:20:30;100766.88;;;24.09
27986;BMP280;15453;53.692;10.168;2022-08-18T02:22:55;100770.09;;;23.99
27986;BMP280;15453;53.692;10.168;2022-08-18T02:25:22;100770.09;;;23.99
27986;BMP280;15453;53.692;10.168;2022-08-18T02:27:48;100779.16;;;23.96
27986;BMP280;15453;53.692;10.168;2022-08-18T02:30:15;100779.16;;;23.96
27986;BMP280;15453;53.692;10.168;2022-08-18T02:32:41;100773.41;;;23.92
27986;BMP280;15453;53.692;10.168;2022-08-18T02:35:07;100763.38;;;23.91
27986;BMP280;15453;53.692;10.168;2022-08-18T02:37:33;100769.94;;;23.95
27986;BMP280;15453;53.692;10.168;2022-08-18T02:39:58;100768.28;;;23.94
27986;BMP280;15453;53.692;10.168;2022-08-18T02:42:24;100769.47;;;23.93
27986;BMP280;15453;53.692;10.168;2022-08-18T02:44:49;100766.66;;;23.93
27986;BMP280;15453;53.692;10.168;2022-08-18T02:47:18;100776.22;;;23.92
27986;BMP280;15453;53.692;10.168;2022-08-18T02:49:44;100771.75;;;23.91
27986;BMP280;15453;53.692;10.168;2022-08-18T02:52:10;100770.94;;;23.91
27986;BMP280;15453;53.692;10.168;2022-08-18T02:54:35;100773.75;;;23.91
27986;BMP280;15453;53.692;10.168;2022-08-18T02:57:05;100765.66;;;23.89
27986;BMP280;15453;53.692;10.168;2022-08-18T02:59:30;100765.66;;;23.89
27986;BMP280;15453;53.692;10.168;2022-08-18T03:01:55;100761.59;;;23.78
27986;BMP280;15453;53.692;10.168;2022-08-18T03:04:24;100763.06;;;23.84
27986;BMP280;15453;53.692;10.168;2022-08-18T03:06:54;100758.13;;;23.81
27986;BMP280;15453;53.692;10.168;2022-08-18T03:09:20;100763.25;;;23.79
27986;BMP280;15453;53.692;10.168;2022-08-18T03:11:45;100771.00;;;23.74
27986;BMP280;15453;53.692;10.168;2022-08-18T03:14:12;100772.50;;;23.71
27986;BMP280;15453;53.692;10.168;2022-08-18T03:16:40;100768.88;;;23.71
27986;BMP280;15453;53.692;10.168;2022-08-18T03:19:05;100763.63;;;23.69
27986;BMP280;15453;53.692;10.168;2022-08-18T03:21:32;100763.63;;;23.69
27986;BMP280;15453;53.692;10.168;2022-08-18T03:24:00;100765.94;;;23.67
27986;BMP280;15453;53.692;10.168;2022-08-18T03:26:26;100758.34;;;23.68
27986;BMP280;15453;53.692;10.168;2022-08-18T03:28:53;100768.72;;;23.67
27986;BMP280;15453;53.692;10.168;2022-08-18T03:31:21;100768.72;;;23.67
27986;BMP280;15453;53.692;10.168;2022-08-18T03:33:47;100765.44;;;23.65
27986;BMP280;15453;53.692;10.168;2022-08-18T03:36:16;100766.59;;;23.64
27986;BMP280;15453;53.692;10.168;2022-08-18T03:38:43;100765.78;;;23.64
27986;BMP280;15453;53.692;10.168;2022-08-18T03:41:12;100769.06;;;23.66
27986;BMP280;15453;53.692;10.168;2022-08-18T03:43:38;100769.41;;;23.64
27986;BMP280;15453;53.692;10.168;2022-08-18T03:46:05;100769.41;;;23.64
27986;BMP280;15453;53.692;10.168;2022-08-18T03:48:31;100764.97;;;23.63
27986;BMP280;15453;53.692;10.168;2022-08-18T03:51:09;100764.97;;;23.63
27986;BMP280;15453;53.692;10.168;2022-08-18T03:53:35;100767.25;;;23.61
27986;BMP280;15453;53.692;10.168;2022-08-18T03:56:05;100766.78;;;23.59
27986;BMP280;15453;53.692;10.168;2022-08-18T03:58:31;100766.78;;;23.59
27986;BMP280;15453;53.692;10.168;2022-08-18T04:00:56;100770.25;;;23.56
27986;BMP280;15453;53.692;10.168;2022-08-18T04:03:22;100765.00;;;23.55
27986;BMP280;15453;53.692;10.168;2022-08-18T04:05:47;100768.63;;;23.55
27986;BMP280;15453;53.692;10.168;2022-08-18T04:08:12;100778.63;;;23.56
27986;BMP280;15453;53.692;10.168;2022-08-18T04:10:38;100779.47;;;23.57
27986;BMP280;15453;53.692;10.168;2022-08-18T04:13:03;100789.50;;;23.58
27986;BMP280;15453;53.692;10.168;2022-08-18T04:15:32;100787.34;;;23.63
27986;BMP280;15453;53.692;10.168;2022-08-18T04:17:58;100787.34;;;23.63
27986;BMP280;15453;53.692;10.168;2022-08-18T04:20:24;100788.47;;;23.62
27986;BMP280;15453;53.692;10.168;2022-08-18T04:22:49;100800.28;;;23.68
27986;BMP280;15453;53.692;10.168;2022-08-18T04:25:14;100800.28;;;23.68
27986;BMP280;15453;53.692;10.168;2022-08-18T04:27:40;100789.44;;;23.66
27986;BMP280;15453;53.692;10.168;2022-08-18T04:30:07;100789.13;;;23.68
27986;BMP280;15453;53.692;10.168;2022-08-18T04:32:33;100797.16;;;23.69
27986;BMP280;15453;53.692;10.168;2022-08-18T04:34:58;100801.59;;;23.70
27986;BMP280;15453;53.692;10.168;2022-08-18T04:37:24;100796.50;;;23.72
27986;BMP280;15453;53.692;10.168;2022-08-18T04:39:49;100790.91;;;23.72
27986;BMP280;15453;53.692;10.168;2022-08-18T04:42:14;100790.59;;;23.74
27986;BMP280;15453;53.692;10.168;2022-08-18T04:44:40;100782.66;;;23.76
27986;BMP280;15453;53.692;10.168;2022-08-18T04:47:06;100786.75;;;23.78
27986;BMP280;15453;53.692;10.168;2022-08-18T04:49:33;100794.03;;;23.79
27986;BMP280;15453;53.692;10.168;2022-08-18T04:51:58;100789.72;;;23.82
27986;BMP280;15453;53.692;10.168;2022-08-18T04:54:42;100785.78;;;23.83
27986;BMP280;15453;53.692;10.168;2022-08-18T04:57:09;100797.25;;;23.90
27986;BMP280;15453;53.692;10.168;2022-08-18T04:59:36;100793.34;;;23.91
27986;BMP280;15453;53.692;10.168;2022-08-18T05:02:02;100800.22;;;23.93
27986;BMP280;15453;53.692;10.168;2022-08-18T05:04:31;100803.53;;;23.87
27986;BMP280;15453;53.692;10.168;2022-08-18T05:06:56;100791.19;;;23.96
27986;BMP280;15453;53.692;10.168;2022-08-18T05:09:22;100796.06;;;23.99
27986;BMP280;15453;53.692;10.168;2022-08-18T05:11:47;100791.31;;;24.00
27986;BMP280;15453;53.692;10.168;2022-08-18T05:14:12;100793.28;;;23.99
27986;BMP280;15453;53.692;10.168;2022-08-18T05:16:38;100793.28;;;23.99
27986;BMP280;15453;53.692;10.168;2022-08-18T05:19:08;100794.09;;;24.00
27986;BMP280;15453;53.692;10.168;2022-08-18T05:21:36;100793.78;;;24.01
27986;BMP280;15453;53.692;10.168;2022-08-18T05:24:03;100788.97;;;24.02
27986;BMP280;15453;53.692;10.168;2022-08-18T05:26:28;100794.25;;;24.03
27986;BMP280;15453;53.692;10.168;2022-08-18T05:28:54;100794.75;;;24.05
27986;BMP280;15453;53.692;10.168;2022-08-18T05:31:23;100800.81;;;24.07
27986;BMP280;15453;53.692;10.168;2022-08-18T05:33:49;100800.47;;;24.09
27986;BMP280;15453;53.692;10.168;2022-08-18T05:36:46;100802.09;;;24.10
27986;BMP280;15453;53.692;10.168;2022-08-18T05:39:30;100805.41;;;24.12
27986;BMP280;15453;53.692;10.168;2022-08-18T05:42:05;100804.72;;;24.15
27986;BMP280;15453;53.692;10.168;2022-08-18T05:44:34;100805.69;;;24.19
27986;BMP280;15453;53.692;10.168;2022-08-18T05:47:10;100798.44;;;24.18
27986;BMP280;15453;53.692;10.168;2022-08-18T05:49:37;100801.41;;;24.21
27986;BMP280;15453;53.692;10.168;2022-08-18T05:52:06;100800.69;;;24.24
27986;BMP280;15453;53.692;10.168;2022-08-18T05:54:45;100799.91;;;24.24
27986;BMP280;15453;53.692;10.168;2022-08-18T05:57:35;100809.25;;;24.28
27986;BMP280;15453;53.692;10.168;2022-08-18T06:00:04;100798.06;;;24.28
27986;BMP280;15453;53.692;10.168;2022-08-18T06:02:43;100798.06;;;24.28
27986;BMP280;15453;53.692;10.168;2022-08-18T06:05:19;100799.38;;;24.30
27986;BMP280;15453;53.692;10.168;2022-08-18T06:07:52;100808.56;;;24.31
27986;BMP280;15453;53.692;10.168;2022-08-18T06:10:18;100802.63;;;24.32
27986;BMP280;15453;53.692;10.168;2022-08-18T06:12:46;100802.28;;;24.34
27986;BMP280;15453;53.692;10.168;2022-08-18T06:15:28;100803.94;;;24.35
27986;BMP280;15453;53.692;10.168;2022-08-18T06:18:31;100802.28;;;24.34
27986;BMP280;15453;53.692;10.168;2022-08-18T06:21:12;100810.34;;;24.35
27986;BMP280;15453;53.692;10.168;2022-08-18T06:26:31;100810.69;;;24.34
27986;BMP280;15453;53.692;10.168;2022-08-18T06:32:21;100810.03;;;24.37
27986;BMP280;15453;53.692;10.168;2022-08-18T06:37:41;100816.63;;;24.32
27986;BMP280;15453;53.692;10.168;2022-08-18T06:40:29;100836.72;;;24.34
27986;BMP280;15453;53.692;10.168;2022-08-18T06:42:54;100836.72;;;24.34
27986;BMP280;15453;53.692;10.168;2022-08-18T06:45:24;100818.63;;;24.32
27986;BMP280;15453;53.692;10.168;2022-08-18T06:47:59;100819.44;;;24.32
27986;BMP280;15453;53.692;10.168;2022-08-18T06:50:36;100821.09;;;24.33
27986;BMP280;15453;53.692;10.168;2022-08-18T06:53:06;100833.91;;;24.34
27986;BMP280;15453;53.692;10.168;2022-08-18T06:55:37;100821.56;;;24.35
27986;BMP280;15453;53.692;10.168;2022-08-18T06:58:18;100826.31;;;24.35
27986;BMP280;15453;53.692;10.168;2022-08-18T07:03:40;100824.81;;;24.37
27986;BMP280;15453;53.692;10.168;2022-08-18T07:08:48;100821.03;;;24.42
27986;BMP280;15453;53.692;10.168;2022-08-18T07:13:48;100829.38;;;24.50
27986;BMP280;15453;53.692;10.168;2022-08-18T07:16:36;100824.72;;;24.54
27986;BMP280;15453;53.692;10.168;2022-08-18T07:19:10;100826.03;;;24.57
27986;BMP280;15453;53.692;10.168;2022-08-18T07:21:38;100824.22;;;24.61
27986;BMP280;15453;53.692;10.168;2022-08-18T07:24:30;100827.63;;;24.66
27986;BMP280;15453;53.692;10.168;2022-08-18T07:27:08;100828.94;;;24.69
27986;BMP280;15453;53.692;10.168;2022-08-18T07:29:37;100830.69;;;24.73
27986;BMP280;15453;53.692;10.168;2022-08-18T07:32:08;100827.34;;;24.80
27986;BMP280;15453;53.692;10.168;2022-08-18T07:34:41;100839.50;;;24.84
27986;BMP280;15453;53.692;10.168;2022-08-18T07:37:18;100831.06;;;24.92
27986;BMP280;15453;53.692;10.168;2022-08-18T07:40:02;100827.91;;;24.94
27986;BMP280;15453;53.692;10.168;2022-08-18T07:42:37;100836.44;;;24.97
27986;BMP280;15453;53.692;10.168;2022-08-18T07:45:30;100837.53;;;25.05
27986;BMP280;15453;53.692;10.168;2022-08-18T07:48:01;100837.78;;;25.12
27986;BMP280;15453;53.692;10.168;2022-08-18T07:50:33;100841.69;;;25.19
27986;BMP280;15453;53.692;10.168;2022-08-18T07:53:37;100842.97;;;25.22
27986;BMP280;15453;53.692;10.168;2022-08-18T07:56:12;100853.84;;;25.23
27986;BMP280;15453;53.692;10.168;2022-08-18T07:58:47;100849.72;;;25.29
27986;BMP280;15453;53.692;10.168;2022-08-18T08:01:32;100863.50;;;25.34
27986;BMP280;15453;53.692;10.168;2022-08-18T08:04:24;100863.16;;;25.36
27986;BMP280;15453;53.692;10.168;2022-08-18T08:07:04;100868.28;;;25.34
27986;BMP280;15453;53.692;10.168;2022-08-18T08:09:44;100871.91;;;25.34
27986;BMP280;15453;53.692;10.168;2022-08-18T08:12:35;100881.50;;;25.33
27986;BMP280;15453;53.692;10.168;2022-08-18T08:15:18;100889.91;;;25.33
27986;BMP280;15453;53.692;10.168;2022-08-18T08:17:54;100891.06;;;25.32
27986;BMP280;15453;53.692;10.168;2022-08-18T08:20:31;100883.81;;;25.31
27986;BMP280;15453;53.692;10.168;2022-08-18T08:28:47;100890.41;;;25.27
27986;BMP280;15453;53.692;10.168;2022-08-18T08:37:04;100889.47;;;25.23
27986;BMP280;15453;53.692;10.168;2022-08-18T08:39:43;100898.69;;;25.23
27986;BMP280;15453;53.692;10.168;2022-08-18T08:42:19;100891.13;;;25.24
27986;BMP280;15453;53.692;10.168;2022-08-18T08:44:56;100885.50;;;25.24
27986;BMP280;15453;53.692;10.168;2022-08-18T08:47:39;100890.78;;;25.25
27986;BMP280;15453;53.692;10.168;2022-08-18T08:50:43;100891.28;;;25.27
27986;BMP280;15453;53.692;10.168;2022-08-18T08:53:05;100886.16;;;25.29
27986;BMP280;15453;53.692;10.168;2022-08-18T08:55:34;100886.97;;;25.30
27986;BMP280;15453;53.692;10.168;2022-08-18T09:00:32;100895.56;;;25.25
27986;BMP280;15453;53.692;10.168;2022-08-18T09:03:07;100891.22;;;25.36
27986;BMP280;15453;53.692;10.168;2022-08-18T09:05:42;100898.78;;;25.35
27986;BMP280;15453;53.692;10.168;2022-08-18T09:08:21;100899.63;;;25.36
27986;BMP280;15453;53.692;10.168;2022-08-18T09:14:01;100900.41;;;25.36
27986;BMP280;15453;53.692;10.168;2022-08-18T09:16:40;100901.72;;;25.39
27986;BMP280;15453;53.692;10.168;2022-08-18T09:22:00;100904.06;;;25.37
27986;BMP280;15453;53.692;10.168;2022-08-18T09:24:40;100909.78;;;25.40
27986;BMP280;15453;53.692;10.168;2022-08-18T09:30:00;100897.88;;;25.43
27986;BMP280;15453;53.692;10.168;2022-08-18T09:37:26;100895.53;;;25.45
27986;BMP280;15453;53.692;10.168;2022-08-18T09:40:06;100915.09;;;25.54
27986;BMP280;15453;53.692;10.168;2022-08-18T09:43:04;100915.09;;;25.54
27986;BMP280;15453;53.692;10.168;2022-08-18T09:47:59;100890.81;;;25.58
27986;BMP280;15453;53.692;10.168;2022-08-18T09:52:52;100890.72;;;25.66
27986;BMP280;15453;53.692;10.168;2022-08-18T09:57:43;100893.44;;;25.75
27986;BMP280;15453;53.692;10.168;2022-08-18T10:07:41;100889.81;;;26.19
27986;BMP280;15453;53.692;10.168;2022-08-18T10:10:30;100889.81;;;26.19
27986;BMP280;15453;53.692;10.168;2022-08-18T10:13:27;100881.94;;;26.24
27986;BMP280;15453;53.692;10.168;2022-08-18T10:16:25;100874.81;;;26.39
27986;BMP280;15453;53.692;10.168;2022-08-18T10:19:17;100875.28;;;26.53
27986;BMP280;15453;53.692;10.168;2022-08-18T10:24:29;100880.69;;;26.70
27986;BMP280;15453;53.692;10.168;2022-08-18T10:26:58;100872.00;;;26.75
27986;BMP280;15453;53.692;10.168;2022-08-18T10:37:10;100879.13;;;26.97
27986;BMP280;15453;53.692;10.168;2022-08-18T10:44:45;100901.31;;;27.26
27986;BMP280;15453;53.692;10.168;2022-08-18T10:47:27;100892.97;;;27.29
27986;BMP280;15453;53.692;10.168;2022-08-18T10:49:53;100888.28;;;27.33
27986;BMP280;15453;53.692;10.168;2022-08-18T10:52:43;100888.28;;;27.33
27986;BMP280;15453;53.692;10.168;2022-08-18T10:55:19;100905.00;;;27.42
27986;BMP280;15453;53.692;10.168;2022-08-18T10:58:05;100905.00;;;27.42
27986;BMP280;15453;53.692;10.168;2022-08-18T11:03:47;100900.28;;;27.46
27986;BMP280;15453;53.692;10.168;2022-08-18T11:06:21;100897.47;;;27.46
27986;BMP280;15453;53.692;10.168;2022-08-18T11:08:50;100900.69;;;27.60
27986;BMP280;15453;53.692;10.168;2022-08-18T11:11:21;100900.69;;;27.60
27986;BMP280;15453;53.692;10.168;2022-08-18T11:19:21;100901.25;;;27.65
27986;BMP280;15453;53.692;10.168;2022-08-18T11:21:48;100903.34;;;27.68
27986;BMP280;15453;53.692;10.168;2022-08-18T11:24:23;100904.25;;;27.72
27986;BMP280;15453;53.692;10.168;2022-08-18T11:26:55;100895.00;;;27.72
27986;BMP280;15453;53.692;10.168;2022-08-18T11:29:36;100897.47;;;27.73
27986;BMP280;15453;53.692;10.168;2022-08-18T11:37:23;100889.19;;;27.80
27986;BMP280;15453;53.692;10.168;2022-08-18T11:39:53;100887.81;;;27.86
27986;BMP280;15453;53.692;10.168;2022-08-18T11:42:26;100893.59;;;27.93
27986;BMP280;15453;53.692;10.168;2022-08-18T11:44:54;100886.25;;;28.04
27986;BMP280;15453;53.692;10.168;2022-08-18T11:47:26;100886.25;;;28.04
27986;BMP280;15453;53.692;10.168;2022-08-18T11:49:57;100893.38;;;28.14
27986;BMP280;15453;53.692;10.168;2022-08-18T11:52:26;100893.38;;;28.14
27986;BMP280;15453;53.692;10.168;2022-08-18T11:54:59;100883.81;;;28.18
27986;BMP280;15453;53.692;10.168;2022-08-18T11:57:39;100888.00;;;28.24
27986;BMP280;15453;53.692;10.168;2022-08-18T12:05:50;100884.88;;;28.60
27986;BMP280;15453;53.692;10.168;2022-08-18T12:11:17;100878.69;;;28.70
27986;BMP280;15453;53.692;10.168;2022-08-18T12:13:45;100867.06;;;28.72
27986;BMP280;15453;53.692;10.168;2022-08-18T12:16:15;100857.28;;;28.85
27986;BMP280;15453;53.692;10.168;2022-08-18T12:18:40;100857.28;;;28.85
27986;BMP280;15453;53.692;10.168;2022-08-18T12:21:07;100850.53;;;28.89
27986;BMP280;15453;53.692;10.168;2022-08-18T12:23:34;100841.97;;;29.01
27986;BMP280;15453;53.692;10.168;2022-08-18T12:26:00;100846.22;;;29.30
27986;BMP280;15453;53.692;10.168;2022-08-18T12:28:26;100850.88;;;29.41
27986;BMP280;15453;53.692;10.168;2022-08-18T12:30:51;100850.78;;;29.57
27986;BMP280;15453;53.692;10.168;2022-08-18T12:33:16;100850.78;;;29.57
27986;BMP280;15453;53.692;10.168;2022-08-18T12:35:42;100851.72;;;29.83
27986;BMP280;15453;53.692;10.168;2022-08-18T12:38:08;100860.81;;;29.96
27986;BMP280;15453;53.692;10.168;2022-08-18T12:40:34;100848.84;;;30.02
27986;BMP280;15453;53.692;10.168;2022-08-18T12:42:59;100841.63;;;30.05
27986;BMP280;15453;53.692;10.168;2022-08-18T12:45:26;100843.28;;;30.09
27986;BMP280;15453;53.692;10.168;2022-08-18T12:47:51;100831.69;;;30.14
27986;BMP280;15453;53.692;10.168;2022-08-18T12:50:16;100832.56;;;30.18
27986;BMP280;15453;53.692;10.168;2022-08-18T12:52:42;100829.88;;;30.25
27986;BMP280;15453;53.692;10.168;2022-08-18T12:55:07;100833.56;;;30.29
27986;BMP280;15453;53.692;10.168;2022-08-18T12:57:34;100824.75;;;30.34
27986;BMP280;15453;53.692;10.168;2022-08-18T12:59:59;100820.34;;;30.37
27986;BMP280;15453;53.692;10.168;2022-08-18T13:02:24;100827.72;;;30.41
27986;BMP280;15453;53.692;10.168;2022-08-18T13:04:51;100815.31;;;30.49
27986;BMP280;15453;53.692;10.168;2022-08-18T13:07:17;100815.03;;;30.58
27986;BMP280;15453;53.692;10.168;2022-08-18T13:09:43;100815.03;;;30.58
27986;BMP280;15453;53.692;10.168;2022-08-18T13:12:09;100809.47;;;30.65
27986;BMP280;15453;53.692;10.168;2022-08-18T13:14:35;100809.66;;;30.75
27986;BMP280;15453;53.692;10.168;2022-08-18T13:17:00;100820.91;;;31.01
27986;BMP280;15453;53.692;10.168;2022-08-18T13:19:26;100826.31;;;31.13
27986;BMP280;15453;53.692;10.168;2022-08-18T13:21:52;100826.31;;;31.13
27986;BMP280;15453;53.692;10.168;2022-08-18T13:24:17;100833.09;;;31.35
27986;BMP280;15453;53.692;10.168;2022-08-18T13:26:45;100833.09;;;31.35
27986;BMP280;15453;53.692;10.168;2022-08-18T13:29:10;100827.59;;;31.49
27986;BMP280;15453;53.692;10.168;2022-08-18T13:31:37;100827.59;;;31.49
27986;BMP280;15453;53.692;10.168;2022-08-18T13:34:03;100828.81;;;31.52
27986;BMP280;15453;53.692;10.168;2022-08-18T13:36:29;100826.94;;;31.66
27986;BMP280;15453;53.692;10.168;2022-08-18T13:39:08;100826.94;;;31.66
27986;BMP280;15453;53.692;10.168;2022-08-18T13:41:33;100827.53;;;31.79
27986;BMP280;15453;53.692;10.168;2022-08-18T13:43:58;100817.50;;;31.88
27986;BMP280;15453;53.692;10.168;2022-08-18T13:46:24;100817.50;;;31.88
27986;BMP280;15453;53.692;10.168;2022-08-18T13:48:49;100797.38;;;32.00
27986;BMP280;15453;53.692;10.168;2022-08-18T13:51:21;100797.38;;;32.00
27986;BMP280;15453;53.692;10.168;2022-08-18T13:53:47;100799.00;;;32.01
27986;BMP280;15453;53.692;10.168;2022-08-18T13:56:12;100799.81;;;32.02
27986;BMP280;15453;53.692;10.168;2022-08-18T13:58:37;100799.81;;;32.02
27986;BMP280;15453;53.692;10.168;2022-08-18T14:01:05;100796.50;;;31.93
27986;BMP280;15453;53.692;10.168;2022-08-18T14:03:32;100796.50;;;31.93
27986;BMP280;15453;53.692;10.168;2022-08-18T14:06:00;100797.25;;;31.86
27986;BMP280;15453;53.692;10.168;2022-08-18T14:08:27;100800.84;;;31.83
27986;BMP280;15453;53.692;10.168;2022-08-18T14:10:55;100803.72;;;31.87
27986;BMP280;15453;53.692;10.168;2022-08-18T14:13:21;100808.22;;;31.91
27986;BMP280;15453;53.692;10.168;2022-08-18T14:15:47;100808.22;;;31.91
27986;BMP280;15453;53.692;10.168;2022-08-18T14:18:12;100807.06;;;31.96
27986;BMP280;15453;53.692;10.168;2022-08-18T14:20:38;100819.38;;;32.17
27986;BMP280;15453;53.692;10.168;2022-08-18T14:23:22;100819.38;;;32.17
27986;BMP280;15453;53.692;10.168;2022-08-18T14:26:06;100810.50;;;32.22
27986;BMP280;15453;53.692;10.168;2022-08-18T14:28:50;100796.50;;;32.40
27986;BMP280;15453;53.692;10.168;2022-08-18T14:31:16;100787.25;;;32.50
27986;BMP280;15453;53.692;10.168;2022-08-18T14:33:43;100787.25;;;32.50
27986;BMP280;15453;53.692;10.168;2022-08-18T14:36:09;100789.75;;;32.65
27986;BMP280;15453;53.692;10.168;2022-08-18T14:38:34;100789.75;;;32.65
27986;BMP280;15453;53.692;10.168;2022-08-18T14:41:03;100789.38;;;32.70
27986;BMP280;15453;53.692;10.168;2022-08-18T14:43:29;100811.81;;;32.89
27986;BMP280;15453;53.692;10.168;2022-08-18T14:45:55;100811.03;;;32.92
27986;BMP280;15453;53.692;10.168;2022-08-18T14:48:21;100820.31;;;32.93
27986;BMP280;15453;53.692;10.168;2022-08-18T14:50:49;100836.13;;;32.94
27986;BMP280;15453;53.692;10.168;2022-08-18T14:53:18;100836.13;;;32.94
27986;BMP280;15453;53.692;10.168;2022-08-18T14:55:44;100823.94;;;32.86
27986;BMP280;15453;53.692;10.168;2022-08-18T14:58:09;100833.59;;;32.78
27986;BMP280;15453;53.692;10.168;2022-08-18T15:00:35;100833.59;;;32.78
27986;BMP280;15453;53.692;10.168;2022-08-18T15:03:00;100823.84;;;32.72
27986;BMP280;15453;53.692;10.168;2022-08-18T15:05:26;100830.31;;;32.73
27986;BMP280;15453;53.692;10.168;2022-08-18T15:07:56;100829.91;;;32.74
27986;BMP280;15453;53.692;10.168;2022-08-18T15:10:23;100833.28;;;32.87
27986;BMP280;15453;53.692;10.168;2022-08-18T15:12:48;100830.47;;;32.90
27986;BMP280;15453;53.692;10.168;2022-08-18T15:15:14;100834.91;;;32.91
27986;BMP280;15453;53.692;10.168;2022-08-18T15:17:39;100836.53;;;32.89
27986;BMP280;15453;53.692;10.168;2022-08-18T15:20:06;100836.53;;;32.89
27986;BMP280;15453;53.692;10.168;2022-08-18T15:22:37;100831.22;;;32.84
27986;BMP280;15453;53.692;10.168;2022-08-18T15:25:20;100843.78;;;32.83
27986;BMP280;15453;53.692;10.168;2022-08-18T15:28:20;100843.78;;;32.83
27986;BMP280;15453;53.692;10.168;2022-08-18T15:30:48;100841.34;;;32.85
27986;BMP280;15453;53.692;10.168;2022-08-18T15:33:14;100847.16;;;33.06
27986;BMP280;15453;53.692;10.168;2022-08-18T15:35:44;100847.16;;;33.06
27986;BMP280;15453;53.692;10.168;2022-08-18T15:38:10;100853.25;;;33.11
27986;BMP280;15453;53.692;10.168;2022-08-18T15:40:53;100852.09;;;33.19